Time;durP1;ratioP1;P1;durP2;ratioP2;P2;SDS_P1;SDS_P2;PMS_P1;PMS_P2;Temp;Humidity;BMP_temperature;BMP_pressure;BME280_temperature;BME280_humidity;BME280_pressure;Samples;Min_cycle;Max_cycle;Signal;HPM_P1;HPM_P2
2024/04/13 00:01:08;;;;;;;29.80;12.45;;;;;;;10.85;100.00;102404.09;10863197;26;20024;-73
2024/04/13 00:06:05;;;;;;;34.83;11.48;;;;;;;10.94;100.00;102401.63;10835686;26;20075;-72
2024/04/13 00:11:02;;;;;;;19.45;11.27;;;;;;;11.02;100.00;102402.97;10798249;26;20012;-70
2024/04/13 00:15:59;;;;;;;17.85;10.05;;;;;;;10.94;100.00;102401.63;10846424;26;20021;-71
2024/04/13 00:20:56;;;;;;;22.15;10.68;;;;;;;10.91;100.00;102380.28;10797235;26;20014;-73
2024/04/13 00:25:57;;;;;;;22.08;10.02;;;;;;;11.05;100.00;102386.81;10781937;26;20002;-73
2024/04/13 00:30:54;;;;;;;18.92;8.63;;;;;;;11.08;100.00;102378.03;10791833;26;20380;-73
2024/04/13 00:35:51;;;;;;;19.23;8.52;;;;;;;11.19;100.00;102380.72;10846636;26;20021;-71
2024/04/13 00:40:48;;;;;;;17.02;8.70;;;;;;;11.24;100.00;102378.78;10847861;26;20006;-70
2024/04/13 00:45:48;;;;;;;17.52;8.93;;;;;;;11.29;100.00;102365.03;10806386;26;20041;-72
2024/04/13 00:50:48;;;;;;;14.63;7.88;;;;;;;11.29;100.00;102369.72;10844234;26;20481;-71
2024/04/13 00:55:45;;;;;;;13.45;8.00;;;;;;;11.28;100.00;102368.06;10799919;26;20088;-71
2024/04/13 01:00:44;;;;;;;15.45;7.22;;;;;;;11.37;100.00;102349.94;10784648;26;20057;-71
2024/04/13 01:05:41;;;;;;;12.45;8.07;;;;;;;11.39;100.00;102347.72;10758758;26;20028;-69
2024/04/13 01:10:40;;;;;;;14.65;7.53;;;;;;;11.44;100.00;102350.47;10884669;26;20452;-69
2024/04/13 01:15:39;;;;;;;13.45;8.15;;;;;;;11.48;100.00;102345.22;10797206;26;20023;-71
2024/04/13 01:20:38;;;;;;;10.98;7.82;;;;;;;11.49;100.00;102355.09;10861338;26;20001;-71
2024/04/13 01:25:35;;;;;;;15.85;7.18;;;;;;;11.48;100.00;102346.03;10855018;26;20142;-70
2024/04/13 01:30:34;;;;;;;16.70;8.48;;;;;;;11.51;100.00;102340.00;10860023;26;20056;-71
2024/04/13 01:35:31;;;;;;;13.32;7.63;;;;;;;11.59;100.00;102341.31;10854456;26;20008;-71
2024/04/13 01:40:30;;;;;;;15.27;8.05;;;;;;;11.61;100.00;102343.78;10879496;26;20086;-71
2024/04/13 01:45:27;;;;;;;13.73;8.27;;;;;;;11.61;100.00;102335.56;10845178;26;20549;-72
2024/04/13 01:50:24;;;;;;;11.80;7.90;;;;;;;11.63;100.00;102331.44;10844864;26;20009;-71
2024/04/13 01:55:21;;;;;;;13.90;7.60;;;;;;;11.64;100.00;102337.72;10849868;26;20121;-71
2024/04/13 02:00:19;;;;;;;13.07;8.00;;;;;;;11.70;100.00;102331.91;10856761;26;20086;-69
2024/04/13 02:05:16;;;;;;;12.60;7.75;;;;;;;11.69;100.00;102333.00;10842350;26;20100;-70
2024/04/13 02:10:14;;;;;;;12.70;7.70;;;;;;;11.68;100.00;102316.88;10855198;26;20063;-69
2024/04/13 02:15:12;;;;;;;12.05;7.28;;;;;;;11.71;100.00;102321.78;10866781;26;20908;-70
2024/04/13 02:20:14;;;;;;;13.52;7.38;;;;;;;11.74;100.00;102322.03;10777037;26;20056;-71
2024/04/13 02:25:14;;;;;;;14.45;8.00;;;;;;;11.75;100.00;102323.66;10780805;26;20005;-70
2024/04/13 02:30:11;;;;;;;10.40;7.45;;;;;;;11.77;100.00;102320.63;10784602;26;20018;-70
2024/04/13 02:35:08;;;;;;;11.68;6.97;;;;;;;11.78;100.00;102322.25;10850426;26;20344;-70
2024/04/13 02:40:07;;;;;;;13.25;7.43;;;;;;;11.75;100.00;102317.34;10869573;26;20064;-70
2024/04/13 02:45:10;;;;;;;9.57;7.18;;;;;;;11.76;100.00;102313.50;10891680;26;20004;-70
2024/04/13 02:50:08;;;;;;;10.13;7.05;;;;;;;11.77;100.00;102315.97;10896966;26;20019;-70
2024/04/13 02:55:05;;;;;;;11.52;7.22;;;;;;;11.74;100.00;102310.22;10866789;26;20453;-71
2024/04/13 03:00:07;;;;;;;16.27;7.55;;;;;;;11.77;100.00;102313.22;10859252;26;20096;-70
2024/04/13 03:05:04;;;;;;;;;;;;;;;11.75;100.00;102307.22;10844003;26;20358;-70
2024/04/13 03:10:01;;;;;;;13.30;7.43;;;;;;;11.72;100.00;102309.69;10852937;26;19966;-71
2024/04/13 03:14:58;;;;;;;9.35;7.45;;;;;;;11.74;100.00;102299.25;10787835;26;20078;-69
2024/04/13 03:19:55;;;;;;;9.77;7.85;;;;;;;11.72;100.00;102304.22;10781011;26;20041;-69
2024/04/13 03:24:52;;;;;;;12.45;7.72;;;;;;;11.68;100.00;102303.16;10850034;26;20001;-71
2024/04/13 03:29:50;;;;;;;11.65;7.90;;;;;;;11.68;100.00;102305.91;10789487;26;20084;-71
2024/04/13 03:34:47;;;;;;;13.95;8.00;;;;;;;11.67;100.00;102320.69;10791419;26;20102;-70
2024/04/13 03:39:44;;;;;;;13.20;8.30;;;;;;;11.61;100.00;102316.38;10865069;26;20065;-70
2024/04/13 03:44:41;;;;;;;10.85;7.53;;;;;;;11.58;100.00;102307.63;10866626;26;20005;-71
2024/04/13 03:49:38;;;;;;;11.57;8.05;;;;;;;11.64;100.00;102310.31;10808039;26;20409;-71
2024/04/13 03:54:36;;;;;;;13.32;8.20;;;;;;;11.61;100.00;102302.69;10795064;26;20018;-71
2024/04/13 03:59:33;;;;;;;10.85;7.80;;;;;;;11.61;100.00;102297.22;10848544;26;20346;-70
2024/04/13 04:04:30;;;;;;;11.23;6.93;;;;;;;11.62;100.00;102296.09;10767461;26;20080;-71
2024/04/13 04:09:27;;;;;;;13.07;8.15;;;;;;;11.64;100.00;102285.66;10844924;26;20012;-71
2024/04/13 04:14:24;;;;;;;12.77;7.70;;;;;;;11.65;100.00;102290.03;10765739;26;20018;-71
2024/04/13 04:19:22;;;;;;;11.68;7.68;;;;;;;11.65;100.00;102295.50;10792622;26;20167;-70
2024/04/13 04:24:22;;;;;;;10.38;7.68;;;;;;;11.73;100.00;102289.41;10775439;26;20006;-70
2024/04/13 04:29:20;;;;;;;13.38;8.23;;;;;;;11.75;100.00;102290.78;10790441;26;20010;-70
2024/04/13 04:34:17;;;;;;;13.70;8.15;;;;;;;11.80;100.00;102290.72;10781376;26;20010;-71
2024/04/13 04:39:14;;;;;;;11.80;7.95;;;;;;;11.74;100.00;102285.56;10832148;26;20013;-70
2024/04/13 04:44:11;;;;;;;10.77;7.65;;;;;;;11.79;100.00;102302.00;10783472;26;20017;-70
2024/04/13 04:49:08;;;;;;;11.50;7.53;;;;;;;11.77;100.00;102301.44;10844945;26;20009;-69
2024/04/13 04:54:05;;;;;;;10.10;7.97;;;;;;;11.79;100.00;102296.50;10799094;26;20009;-70
2024/04/13 04:59:02;;;;;;;12.70;7.05;;;;;;;11.83;100.00;102283.03;10778846;26;20017;-71
2024/04/13 05:03:59;;;;;;;12.45;8.30;;;;;;;11.88;100.00;102278.38;10798081;26;20030;-71
2024/04/13 05:08:57;;;;;;;12.07;7.45;;;;;;;11.90;100.00;102280.78;10791116;26;20460;-71
2024/04/13 05:13:54;;;;;;;13.10;7.22;;;;;;;11.93;100.00;102270.09;10810079;26;20020;-72
2024/04/13 05:18:51;;;;;;;11.05;7.07;;;;;;;12.02;100.00;102288.63;10842024;26;20080;-71
2024/04/13 05:23:48;;;;;;;12.68;7.60;;;;;;;12.10;100.00;102290.75;10781244;26;20005;-71
2024/04/13 05:28:45;;;;;;;9.27;6.72;;;;;;;12.14;100.00;102306.34;10786854;26;20069;-71
2024/04/13 05:33:44;;;;;;;9.77;7.00;;;;;;;12.19;100.00;102305.47;10758870;26;20046;-71
2024/04/13 05:38:41;;;;;;;9.68;6.70;;;;;;;12.25;100.00;102309.78;10784924;26;20013;-70
2024/04/13 05:43:38;;;;;;;9.98;7.45;;;;;;;12.30;100.00;102312.50;10766437;26;20033;-71
2024/04/13 05:48:36;;;;;;;9.48;7.45;;;;;;;12.38;100.00;102294.56;10819499;26;20441;-72
2024/04/13 05:53:33;;;;;;;10.98;7.70;;;;;;;12.43;100.00;102295.31;10829655;26;20105;-73
2024/04/13 05:58:30;;;;;;;9.25;7.60;;;;;;;12.47;100.00;102322.19;10839411;26;20079;-72
2024/04/13 06:03:28;;;;;;;10.32;6.85;;;;;;;12.45;100.00;102307.94;10813469;26;20006;-73
2024/04/13 06:08:25;;;;;;;9.30;7.25;;;;;;;12.43;100.00;102317.25;10817217;26;20305;-73
2024/04/13 06:13:23;;;;;;;10.07;7.05;;;;;;;12.43;100.00;102302.72;10808379;26;20041;-73
2024/04/13 06:18:20;;;;;;;8.77;7.03;;;;;;;12.43;100.00;102300.81;10829535;26;20068;-73
2024/04/13 06:23:17;;;;;;;11.05;7.07;;;;;;;12.49;100.00;102298.03;10790055;26;20006;-73
2024/04/13 06:28:15;;;;;;;11.18;8.27;;;;;;;12.51;100.00;102302.09;10835833;26;20020;-71
2024/04/13 06:33:12;;;;;;;11.60;7.32;;;;;;;12.56;100.00;102309.47;10811618;26;20009;-73
2024/04/13 06:38:10;;;;;;;10.15;7.53;;;;;;;12.59;100.00;102311.59;10769699;26;20399;-72
2024/04/13 06:43:07;;;;;;;9.48;6.88;;;;;;;12.74;100.00;102303.19;10771299;26;19999;-71
2024/04/13 06:48:04;;;;;;;11.43;7.20;;;;;;;12.84;100.00;102300.31;10815912;26;20012;-71
2024/04/13 06:53:01;;;;;;;13.07;7.60;;;;;;;13.01;100.00;102293.50;10801071;26;20013;-72
2024/04/13 06:57:58;;;;;;;11.10;7.75;;;;;;;13.02;100.00;102295.97;10804090;26;20070;-72
2024/04/13 07:02:56;;;;;;;12.75;7.72;;;;;;;13.05;100.00;102300.03;10812973;26;20005;-71
2024/04/13 07:07:53;;;;;;;9.77;7.53;;;;;;;13.24;100.00;102297.28;10754546;26;20779;-72
2024/04/13 07:12:50;;;;;;;11.50;7.07;;;;;;;13.20;100.00;102302.56;10773084;26;20523;-72
2024/04/13 07:17:48;;;;;;;8.27;6.95;;;;;;;13.20;100.00;102291.56;10825859;26;20035;-72
2024/04/13 07:22:47;;;;;;;16.98;8.45;;;;;;;13.34;100.00;102296.34;10852062;26;20348;-70
2024/04/13 07:27:44;;;;;;;12.02;7.47;;;;;;;13.47;100.00;102298.34;10834272;26;20012;-67
2024/04/13 07:32:41;;;;;;;11.20;7.45;;;;;;;13.45;100.00;102292.34;10855903;26;20005;-70
2024/04/13 07:37:39;;;;;;;13.90;7.70;;;;;;;13.61;100.00;102288.22;10832651;26;20002;-71
2024/04/13 07:42:36;;;;;;;10.27;7.82;;;;;;;13.68;100.00;102290.59;10843150;26;20037;-72
2024/04/13 07:47:33;;;;;;;10.82;7.57;;;;;;;13.70;100.00;102298.53;10831460;26;20472;-70
2024/04/13 07:52:30;;;;;;;13.98;8.20;;;;;;;13.80;100.00;102293.66;10855432;26;20017;-69
2024/04/13 07:57:27;;;;;;;12.02;7.20;;;;;;;14.07;100.00;102292.94;10827481;26;20044;-73
2024/04/13 08:02:24;;;;;;;13.05;7.43;;;;;;;14.18;100.00;102298.22;10840133;26;20029;-72
2024/04/13 08:07:21;;;;;;;9.05;7.45;;;;;;;14.29;100.00;102299.66;10855083;26;20022;-72
2024/04/13 08:12:19;;;;;;;11.77;8.55;;;;;;;14.25;100.00;102293.13;10821151;26;20009;-71
2024/04/13 08:17:16;;;;;;;10.60;7.30;;;;;;;14.43;100.00;102289.47;10844174;26;20012;-72
2024/04/13 08:22:13;;;;;;;9.30;7.95;;;;;;;14.49;100.00;102293.78;10846163;26;20092;-74
2024/04/13 08:27:10;;;;;;;12.40;8.30;;;;;;;14.53;100.00;102272.78;10859834;26;20024;-72
2024/04/13 08:32:07;;;;;;;12.57;8.70;;;;;;;14.65;100.00;102268.72;10837678;26;20010;-72
2024/04/13 08:37:04;;;;;;;12.15;8.30;;;;;;;14.83;100.00;102291.72;10799532;26;20397;-72
2024/04/13 08:42:09;;;;;;;12.52;7.40;;;;;;;14.85;100.00;102268.28;10820446;26;20017;-74
2024/04/13 08:47:06;;;;;;;12.20;8.75;;;;;;;14.99;100.00;102276.50;10797930;26;20077;-74
2024/04/13 08:52:07;;;;;;;12.25;7.65;;;;;;;15.02;100.00;102272.31;10782194;26;20009;-74
2024/04/13 08:57:10;;;;;;;11.15;7.55;;;;;;;15.15;100.00;102265.94;10788287;26;20752;-74
2024/04/13 09:02:14;;;;;;;11.45;8.32;;;;;;;15.53;100.00;102276.63;10783444;26;20002;-74
2024/04/13 09:07:11;;;;;;;10.98;7.32;;;;;;;15.46;100.00;102273.50;10785319;26;20024;-74
2024/04/13 09:12:09;;;;;;;10.45;8.20;;;;;;;15.47;100.00;102269.59;10787232;26;20346;-74
2024/04/13 09:17:06;;;;;;;10.70;7.70;;;;;;;15.70;100.00;102260.22;10784449;26;20018;-74
2024/04/13 09:22:04;;;;;;;11.88;8.73;;;;;;;15.87;100.00;102259.50;10794715;26;20436;-74
2024/04/13 09:27:06;;;;;;;10.55;8.13;;;;;;;16.06;100.00;102253.75;10814086;26;22069;-74
2024/04/13 09:32:03;;;;;;;11.95;8.10;;;;;;;16.07;100.00;102238.81;10866148;26;20001;-74
2024/04/13 09:37:10;;;;;;;12.55;8.27;;;;;;;16.06;100.00;102234.47;10827518;26;20252;-74
2024/04/13 09:42:11;;;;;;;11.48;7.93;;;;;;;16.42;100.00;102219.63;10802292;26;20477;-74
2024/04/13 09:47:08;;;;;;;11.40;8.27;;;;;;;17.11;100.00;102224.44;10812143;26;20051;-75
2024/04/13 09:52:06;;;;;;;11.35;7.93;;;;;;;17.29;100.00;102236.31;10834244;26;20108;-73
2024/04/13 09:57:04;;;;;;;13.70;7.72;;;;;;;17.13;100.00;102233.22;10793361;26;20005;-74
2024/04/13 10:02:01;;;;;;;12.73;8.05;;;;;;;17.49;100.00;102222.94;10791228;26;19999;-74
2024/04/13 10:06:59;;;;;;;11.82;7.75;;;;;;;18.05;100.00;102229.28;10791246;26;20009;-74
2024/04/13 10:12:01;;;;;;;11.00;8.20;;;;;;;17.95;100.00;102229.66;10789222;26;20481;-74
2024/04/13 10:17:03;;;;;;;11.63;9.15;;;;;;;18.77;100.00;102193.38;10812960;26;20041;-74
2024/04/13 10:22:01;;;;;;;8.20;7.40;;;;;;;20.19;100.00;102196.78;10857701;26;20015;-71
2024/04/13 10:27:10;;;;;;;14.90;8.35;;;;;;;19.10;100.00;102185.94;10828703;26;20010;-74
2024/04/13 10:32:15;;;;;;;9.63;8.40;;;;;;;18.99;100.00;102168.09;10788691;26;20006;-74
2024/04/13 10:37:32;;;;;;;8.20;7.50;;;;;;;19.68;100.00;102174.03;10817355;26;20012;-72
2024/04/13 10:42:38;;;;;;;11.30;8.90;;;;;;;19.94;100.00;102180.13;10856440;26;20077;-74
2024/04/13 10:47:38;;;;;;;8.52;7.82;;;;;;;19.44;100.00;102175.63;10859571;26;20000;-74
2024/04/13 10:52:36;;;;;;;9.00;8.00;;;;;;;18.82;100.00;102162.69;10856266;26;20049;-74
2024/04/13 10:57:33;;;;;;;10.85;8.90;;;;;;;18.85;100.00;102167.56;10855039;26;20095;-73
2024/04/13 11:02:31;;;;;;;10.40;7.80;;;;;;;18.66;100.00;102166.06;10862747;26;20009;-74
2024/04/13 11:07:28;;;;;;;9.43;8.02;;;;;;;18.60;100.00;102161.06;10866695;26;20011;-74
2024/04/13 11:12:25;;;;;;;8.75;7.85;;;;;;;18.70;100.00;102167.00;10848620;26;20020;-74
2024/04/13 11:17:22;;;;;;;11.73;8.57;;;;;;;18.67;100.00;102169.63;10867232;26;20037;-73
2024/04/13 11:22:20;;;;;;;9.57;7.90;;;;;;;18.74;100.00;102160.78;10863255;26;20005;-74
2024/04/13 11:27:18;;;;;;;8.88;7.97;;;;;;;18.87;100.00;102154.19;10838744;26;20475;-73
2024/04/13 11:32:16;;;;;;;10.15;8.27;;;;;;;18.67;100.00;102139.97;10800013;26;20006;-73
2024/04/13 11:37:13;;;;;;;10.05;8.00;;;;;;;18.96;100.00;102132.75;10787423;26;20017;-73
2024/04/13 11:42:14;;;;;;;10.68;7.80;;;;;;;19.22;100.00;102131.66;10819731;26;20015;-73
2024/04/13 11:47:12;;;;;;;8.45;7.65;;;;;;;19.48;100.00;102118.31;10830630;26;20010;-74
2024/04/13 11:52:17;;;;;;;10.15;8.15;;;;;;;20.14;100.00;102110.91;10802304;26;20013;-73
2024/04/13 11:57:15;;;;;;;11.85;8.52;;;;;;;20.19;100.00;102113.47;10794804;26;19997;-74
2024/04/13 12:02:13;;;;;;;10.13;8.38;;;;;;;19.88;100.00;102114.88;10824388;26;20013;-73
2024/04/13 12:07:12;;;;;;;9.88;7.93;;;;;;;19.54;100.00;102105.84;10845657;26;20014;-72
2024/04/13 12:12:12;;;;;;;9.35;8.10;;;;;;;19.67;100.00;102086.41;10809748;26;20013;-74
2024/04/13 12:17:09;;;;;;;10.57;8.45;;;;;;;19.63;100.00;102096.59;10843967;26;20025;-73
2024/04/13 12:22:09;;;;;;;12.63;8.38;;;;;;;19.84;100.00;102116.75;10795753;26;20008;-73
2024/04/13 12:27:06;;;;;;;8.73;7.82;;;;;;;19.95;100.00;102081.00;10813316;26;20384;-73
2024/04/13 12:32:03;;;;;;;10.73;7.40;;;;;;;20.12;100.00;102068.81;10825904;26;20009;-73
2024/04/13 12:37:01;;;;;;;9.18;7.60;;;;;;;20.10;100.00;102085.03;10833129;26;20021;-74
2024/04/13 12:41:59;;;;;;;10.20;7.15;;;;;;;20.70;100.00;102077.69;10866256;26;20464;-73
2024/04/13 12:46:59;;;;;;;12.93;6.75;;;;;;;21.01;100.00;102062.22;10845184;26;20504;-74
2024/04/13 12:51:56;;;;;;;10.48;6.88;;;;;;;21.03;100.00;102068.25;10852766;26;20013;-73
2024/04/13 12:56:53;;;;;;;9.55;7.32;;;;;;;21.94;100.00;102050.63;10854675;26;20001;-74
2024/04/13 13:01:51;;;;;;;10.55;6.68;;;;;;;21.59;100.00;102045.84;10852139;26;20001;-74
2024/04/13 13:06:48;;;;;;;10.68;7.00;;;;;;;21.06;100.00;102013.91;10839889;26;20005;-76
2024/04/13 13:11:45;;;;;;;9.05;7.07;;;;;;;20.79;100.00;102025.53;10841012;26;20001;-74
2024/04/13 13:16:43;;;;;;;7.38;6.20;;;;;;;20.95;100.00;102024.72;10847086;26;20457;-75
2024/04/13 13:21:40;;;;;;;8.93;6.10;;;;;;;22.00;100.00;102015.75;10861699;26;20801;-75
2024/04/13 13:26:37;;;;;;;8.10;6.00;;;;;;;22.41;100.00;101998.69;10845881;26;20009;-75
2024/04/13 13:31:34;;;;;;;10.80;6.72;;;;;;;22.34;100.00;101979.84;10847819;26;20009;-75
2024/04/13 13:36:32;;;;;;;6.75;5.97;;;;;;;21.92;100.00;101963.84;10846442;26;20053;-75
2024/04/13 13:41:30;;;;;;;6.55;5.95;;;;;;;21.30;100.00;101960.84;10829706;26;20076;-75
2024/04/13 13:46:28;;;;;;;7.55;5.55;;;;;;;21.33;100.00;101942.66;10844422;26;20013;-75
2024/04/13 13:51:25;;;;;;;6.57;5.80;;;;;;;21.19;100.00;101927.22;10846880;26;20074;-75
2024/04/13 13:56:23;;;;;;;7.95;5.68;;;;;;;21.51;100.00;101906.91;10837371;26;20009;-75
2024/04/13 14:01:20;;;;;;;7.53;6.25;;;;;;;21.21;100.00;101908.22;10829253;26;20004;-75
2024/04/13 14:06:17;;;;;;;7.53;6.45;;;;;;;21.29;100.00;101902.81;10836566;26;20450;-74
2024/04/13 14:11:14;;;;;;;8.25;6.68;;;;;;;21.31;100.00;101906.03;10840292;26;20020;-73
2024/04/13 14:16:11;;;;;;;8.10;5.78;;;;;;;21.50;100.00;101885.81;10835647;26;20305;-72
2024/04/13 14:21:08;;;;;;;7.18;5.40;;;;;;;21.61;100.00;101876.53;10832958;26;20011;-73
2024/04/13 14:26:05;;;;;;;6.55;5.47;;;;;;;21.56;100.00;101871.25;10839942;26;20016;-72
2024/04/13 14:31:02;;;;;;;9.93;5.85;;;;;;;21.56;100.00;101876.81;10810731;26;20010;-73
2024/04/13 14:36:00;;;;;;;6.47;5.72;;;;;;;21.80;100.00;101855.44;10774739;26;20580;-74
2024/04/13 14:40:58;;;;;;;6.65;5.75;;;;;;;21.21;100.00;101841.47;10830251;26;20024;-73
2024/04/13 14:45:56;;;;;;;7.88;6.13;;;;;;;21.13;100.00;101841.66;10767719;26;20083;-73
2024/04/13 14:50:53;;;;;;;6.32;5.65;;;;;;;20.93;100.00;101829.69;10790089;26;20076;-73
2024/04/13 14:55:50;;;;;;;6.32;5.72;;;;;;;20.96;100.00;101826.19;10830922;26;20382;-73
2024/04/13 15:00:48;;;;;;;7.20;5.88;;;;;;;20.77;100.00;101811.06;10790086;26;20016;-73
2024/04/13 15:05:45;;;;;;;7.88;5.95;;;;;;;20.79;100.00;101797.63;10780967;26;19997;-75
2024/04/13 15:10:47;;;;;;;7.28;6.45;;;;;;;20.65;100.00;101808.38;10828063;26;20079;-72
2024/04/13 15:15:47;;;;;;;7.15;6.20;;;;;;;20.63;100.00;101804.34;10745613;26;20010;-72
2024/04/13 15:20:44;;;;;;;8.15;6.50;;;;;;;20.30;100.00;101784.09;10834003;26;20037;-72
2024/04/13 15:25:42;;;;;;;7.10;6.40;;;;;;;20.31;100.00;101779.38;10821002;26;20041;-72
2024/04/13 15:30:39;;;;;;;8.05;6.18;;;;;;;20.26;100.00;101774.88;10773785;26;20079;-73
2024/04/13 15:35:36;;;;;;;7.43;6.47;;;;;;;20.15;100.00;101773.81;10786297;26;20005;-73
2024/04/13 15:40:34;;;;;;;7.43;6.60;;;;;;;20.22;100.00;101768.44;10832820;26;20061;-73
2024/04/13 15:45:31;;;;;;;7.15;6.43;;;;;;;20.08;100.00;101762.53;10782318;26;20083;-73
2024/04/13 15:50:28;;;;;;;9.63;6.88;;;;;;;20.00;100.00;101760.72;10849104;26;20496;-73
2024/04/13 15:55:25;;;;;;;9.63;6.70;;;;;;;20.12;100.00;101746.75;10854498;26;20120;-72
2024/04/13 16:00:22;;;;;;;6.95;6.25;;;;;;;20.06;100.00;101731.53;10861234;26;20013;-72
2024/04/13 16:05:19;;;;;;;6.78;6.13;;;;;;;20.11;100.00;101734.84;10866448;26;20369;-72
2024/04/13 16:10:17;;;;;;;9.85;6.32;;;;;;;20.09;100.00;101730.81;10851784;26;20098;-73
2024/04/13 16:15:14;;;;;;;7.30;6.63;;;;;;;19.96;100.00;101714.25;10873176;26;20013;-72
2024/04/13 16:20:12;;;;;;;7.70;6.55;;;;;;;19.92;100.00;101705.03;10861744;26;20082;-73
2024/04/13 16:25:09;;;;;;;7.75;6.82;;;;;;;19.84;100.00;101699.63;10847669;26;20069;-72
2024/04/13 16:30:07;;;;;;;7.32;6.55;;;;;;;19.80;100.00;101680.16;10859675;26;20013;-73
2024/04/13 16:35:05;;;;;;;10.50;6.70;;;;;;;19.72;100.00;101672.78;10871478;26;20024;-72
2024/04/13 16:40:02;;;;;;;9.38;6.80;;;;;;;19.78;100.00;101673.34;10859889;26;19997;-72
2024/04/13 16:45:00;;;;;;;8.68;7.28;;;;;;;19.73;100.00;101663.31;10849689;26;20013;-72
2024/04/13 16:49:58;;;;;;;12.02;7.18;;;;;;;19.76;100.00;101652.28;10864829;26;20132;-72
2024/04/13 16:54:55;;;;;;;9.18;7.22;;;;;;;19.71;100.00;101649.00;10837157;26;20009;-73
2024/04/13 16:59:52;;;;;;;10.52;7.45;;;;;;;19.59;100.00;101644.31;10852068;26;20005;-72
2024/04/13 17:04:49;;;;;;;9.60;6.80;;;;;;;19.57;100.00;101637.50;10843803;26;20079;-72
2024/04/13 17:09:47;;;;;;;10.10;7.20;;;;;;;19.53;100.00;101627.09;10850683;26;20087;-72
2024/04/13 17:14:44;;;;;;;7.85;7.00;;;;;;;19.51;100.00;101615.56;10863196;26;20143;-72
2024/04/13 17:19:42;;;;;;;10.77;7.78;;;;;;;19.45;100.00;101613.44;10859307;26;20016;-72
2024/04/13 17:24:39;;;;;;;8.93;7.53;;;;;;;19.40;100.00;101600.63;10848518;26;20100;-73
2024/04/13 17:29:37;;;;;;;8.20;6.90;;;;;;;19.31;100.00;101598.03;10786159;26;20014;-73
2024/04/13 17:34:34;;;;;;;9.25;7.93;;;;;;;19.22;100.00;101582.72;10862780;26;20423;-73
2024/04/13 17:39:31;;;;;;;9.20;8.25;;;;;;;19.17;100.00;101588.50;10791614;26;20014;-74
2024/04/13 17:44:28;;;;;;;14.18;8.55;;;;;;;19.14;100.00;101585.28;10774421;26;20010;-72
2024/04/13 17:49:25;;;;;;;11.65;8.80;;;;;;;19.08;100.00;101578.41;10781316;26;20033;-72
2024/04/13 17:54:22;;;;;;;11.13;9.27;;;;;;;19.09;100.00;101574.47;10782301;26;20001;-72
2024/04/13 17:59:19;;;;;;;10.23;9.15;;;;;;;18.99;100.00;101563.91;10781589;26;20034;-72
2024/04/13 18:04:19;;;;;;;9.77;8.70;;;;;;;18.94;100.00;101550.31;10841161;26;20005;-72
2024/04/13 18:09:16;;;;;;;10.85;9.75;;;;;;;18.84;100.00;101542.50;10796113;26;20450;-73
2024/04/13 18:14:14;;;;;;;11.43;9.18;;;;;;;18.77;100.00;101539.53;10795674;26;20001;-73
2024/04/13 18:19:11;;;;;;;13.43;9.10;;;;;;;18.80;100.00;101538.81;10846629;26;20000;-72
2024/04/13 18:24:11;;;;;;;13.65;9.38;;;;;;;18.76;100.00;101535.16;10793059;26;20473;-72
2024/04/13 18:29:08;;;;;;;10.57;9.38;;;;;;;18.69;100.00;101519.94;10835290;26;20005;-73
2024/04/13 18:34:05;;;;;;;13.05;9.25;;;;;;;18.69;100.00;101527.44;10854131;26;20528;-72
2024/04/13 18:39:03;;;;;;;10.20;9.20;;;;;;;18.66;100.00;101528.97;10794048;26;20775;-72
2024/04/13 18:44:00;;;;;;;9.90;9.00;;;;;;;18.65;100.00;101537.59;10786872;26;20497;-73
2024/04/13 18:48:57;;;;;;;13.90;10.27;;;;;;;18.67;100.00;101526.97;10831327;26;20083;-73
2024/04/13 18:53:54;;;;;;;12.73;9.25;;;;;;;18.65;100.00;101521.78;10839140;26;20011;-73
2024/04/13 18:58:51;;;;;;;11.57;10.45;;;;;;;18.68;100.00;101521.09;10852849;26;20018;-73
2024/04/13 19:03:51;;;;;;;13.38;9.43;;;;;;;18.67;100.00;101513.94;10851720;26;20020;-74
2024/04/13 19:08:48;;;;;;;11.15;9.85;;;;;;;18.61;100.00;101501.53;10856560;26;20028;-73
2024/04/13 19:13:46;;;;;;;12.07;10.25;;;;;;;18.53;100.00;101496.94;10848750;26;20016;-72
2024/04/13 19:18:43;;;;;;;13.02;10.60;;;;;;;18.48;100.00;101497.19;10868067;26;20403;-72
2024/04/13 19:23:41;;;;;;;10.68;9.57;;;;;;;18.36;100.00;101502.78;10845154;26;20458;-73
2024/04/13 19:28:38;;;;;;;11.23;10.05;;;;;;;18.36;100.00;101492.50;10856360;26;20078;-71
2024/04/13 19:33:35;;;;;;;15.38;10.45;;;;;;;18.27;100.00;101478.81;10807629;26;20018;-71
2024/04/13 19:38:32;;;;;;;14.85;10.80;;;;;;;18.16;100.00;101477.69;10833120;26;20009;-72
2024/04/13 19:43:30;;;;;;;13.65;12.23;;;;;;;18.10;100.00;101468.00;10864604;26;20091;-72
2024/04/13 19:48:27;;;;;;;12.88;11.30;;;;;;;18.05;100.00;101465.50;10869050;26;20005;-72
2024/04/13 19:53:24;;;;;;;14.80;9.88;;;;;;;18.06;100.00;101453.28;10855990;26;20012;-72
2024/04/13 19:58:22;;;;;;;12.38;10.68;;;;;;;18.08;100.00;101443.47;10846908;26;20013;-72
2024/04/13 20:03:19;;;;;;;12.98;10.88;;;;;;;18.11;100.00;101428.13;10841847;26;20039;-72
2024/04/13 20:08:20;;;;;;;12.68;10.88;;;;;;;18.20;100.00;101417.72;10868232;26;20004;-72
2024/04/13 20:13:17;;;;;;;10.48;9.15;;;;;;;18.23;100.00;101414.22;10858378;26;20055;-72
2024/04/13 20:23:30;;;;;;;11.82;8.73;;;;;;;18.38;100.00;101395.25;10845586;26;20025;-72
2024/04/13 20:28:27;;;;;;;16.77;8.90;;;;;;;18.46;100.00;101397.06;10856397;26;20033;-72
2024/04/13 20:33:24;;;;;;;10.05;8.05;;;;;;;18.50;100.00;101392.41;10811264;26;20046;-72
2024/04/13 20:38:21;;;;;;;12.57;8.80;;;;;;;18.49;100.00;101391.59;10830512;26;21302;-72
2024/04/13 20:43:19;;;;;;;9.32;8.10;;;;;;;18.50;100.00;101381.34;10805094;26;20043;-72
2024/04/13 20:48:16;;;;;;;12.77;8.00;;;;;;;18.50;100.00;101378.56;10788765;26;20046;-71
2024/04/13 20:53:13;;;;;;;10.05;7.93;;;;;;;18.46;100.00;101370.16;10799945;26;20045;-72
2024/04/13 20:58:10;;;;;;;11.52;8.15;;;;;;;18.47;100.00;101359.88;10833328;26;20009;-71
2024/04/13 21:03:07;;;;;;;12.00;8.63;;;;;;;18.38;100.00;101351.78;10818465;26;20006;-71
2024/04/13 21:08:05;;;;;;;14.90;8.65;;;;;;;18.32;100.00;101352.38;10780192;26;20610;-72
2024/04/13 21:13:02;;;;;;;12.85;8.48;;;;;;;18.25;100.00;101353.78;10791325;26;20917;-72
2024/04/13 21:17:59;;;;;;;10.68;8.65;;;;;;;18.22;100.00;101357.28;10785548;26;20452;-72
2024/04/13 21:22:57;;;;;;;11.65;8.32;;;;;;;18.16;100.00;101355.91;10789301;26;20002;-72
2024/04/13 21:27:54;;;;;;;13.43;8.60;;;;;;;18.07;100.00;101335.91;10785870;26;20354;-71
2024/04/13 21:32:51;;;;;;;9.05;8.15;;;;;;;18.00;100.00;101344.00;10848736;26;20009;-72
2024/04/13 21:37:56;;;;;;;10.43;8.23;;;;;;;17.97;100.00;101353.03;10817377;26;20182;-72
2024/04/13 21:42:53;;;;;;;10.20;8.70;;;;;;;17.95;100.00;101347.03;10796923;26;20118;-72
2024/04/13 21:47:50;;;;;;;10.73;8.32;;;;;;;17.90;100.00;101352.84;10823199;26;20110;-72
2024/04/13 21:52:47;;;;;;;11.88;8.55;;;;;;;17.80;100.00;101354.91;10810483;26;20801;-73
2024/04/13 21:57:45;;;;;;;12.15;8.32;;;;;;;17.72;100.00;101369.69;10809330;26;20091;-71
2024/04/13 22:02:42;;;;;;;12.80;8.25;;;;;;;17.63;100.00;101366.25;10810670;26;19998;-73
2024/04/13 22:07:39;;;;;;;11.73;9.30;;;;;;;17.51;100.00;101374.59;10790770;26;20043;-71
2024/04/13 22:12:36;;;;;;;10.10;8.98;;;;;;;17.36;100.00;101376.09;10810124;26;20337;-71
2024/04/13 22:17:33;;;;;;;13.20;9.38;;;;;;;17.31;100.00;101371.59;10823739;26;20001;-72
2024/04/13 22:22:32;;;;;;;12.05;7.78;;;;;;;17.34;100.00;101376.47;10844303;26;20016;-74
2024/04/13 22:27:29;;;;;;;12.15;7.18;;;;;;;17.27;100.00;101386.47;10830631;26;20002;-72